sensor_id;sensor_type;location;lat;lon;timestamp;P1;durP1;ratioP1;P2;durP2;ratioP2
76023;SDS011;64719;52.124;6.226;2023-11-21T00:01:31;39.97;;;15.80;;
76023;SDS011;64719;52.124;6.226;2023-11-21T00:03:57;49.63;;;15.80;;
76023;SDS011;64719;52.124;6.226;2023-11-21T00:06:24;50.22;;;16.38;;
76023;SDS011;64719;52.124;6.226;2023-11-21T00:08:50;58.50;;;16.35;;
76023;SDS011;64719;52.124;6.226;2023-11-21T00:11:16;51.80;;;15.88;;
76023;SDS011;64719;52.124;6.226;2023-11-21T00:13:43;50.00;;;15.98;;
76023;SDS011;64719;52.124;6.226;2023-11-21T00:16:12;61.08;;;16.20;;
76023;SDS011;64719;52.124;6.226;2023-11-21T00:18:38;64.40;;;15.75;;
76023;SDS011;64719;52.124;6.226;2023-11-21T00:21:04;39.70;;;14.38;;
76023;SDS011;64719;52.124;6.226;2023-11-21T00:23:31;50.75;;;15.13;;
76023;SDS011;64719;52.124;6.226;2023-11-21T00:25:57;50.90;;;14.88;;
76023;SDS011;64719;52.124;6.226;2023-11-21T00:28:23;44.75;;;15.15;;
76023;SDS011;64719;52.124;6.226;2023-11-21T00:30:50;40.80;;;15.13;;
76023;SDS011;64719;52.124;6.226;2023-11-21T00:33:17;44.45;;;14.43;;
76023;SDS011;64719;52.124;6.226;2023-11-21T00:35:44;35.92;;;14.48;;
76023;SDS011;64719;52.124;6.226;2023-11-21T00:38:10;43.88;;;15.68;;
76023;SDS011;64719;52.124;6.226;2023-11-21T00:40:37;45.38;;;14.90;;
76023;SDS011;64719;52.124;6.226;2023-11-21T00:43:03;50.35;;;15.25;;
76023;SDS011;64719;52.124;6.226;2023-11-21T00:45:30;51.60;;;15.32;;
76023;SDS011;64719;52.124;6.226;2023-11-21T00:47:56;43.85;;;14.63;;
76023;SDS011;64719;52.124;6.226;2023-11-21T00:50:24;42.13;;;14.27;;
76023;SDS011;64719;52.124;6.226;2023-11-21T00:52:51;38.05;;;15.00;;
76023;SDS011;64719;52.124;6.226;2023-11-21T00:55:17;35.35;;;14.70;;
76023;SDS011;64719;52.124;6.226;2023-11-21T00:57:44;41.33;;;14.88;;
76023;SDS011;64719;52.124;6.226;2023-11-21T01:00:10;45.58;;;16.38;;
76023;SDS011;64719;52.124;6.226;2023-11-21T01:02:39;42.80;;;15.70;;
76023;SDS011;64719;52.124;6.226;2023-11-21T01:05:06;37.92;;;15.85;;
76023;SDS011;64719;52.124;6.226;2023-11-21T01:07:34;47.88;;;16.45;;
76023;SDS011;64719;52.124;6.226;2023-11-21T01:10:01;49.60;;;17.55;;
76023;SDS011;64719;52.124;6.226;2023-11-21T01:12:28;54.15;;;16.83;;
76023;SDS011;64719;52.124;6.226;2023-11-21T01:14:54;50.50;;;17.50;;
76023;SDS011;64719;52.124;6.226;2023-11-21T01:17:20;49.17;;;16.13;;
76023;SDS011;64719;52.124;6.226;2023-11-21T01:19:47;46.92;;;16.25;;
76023;SDS011;64719;52.124;6.226;2023-11-21T01:22:14;49.15;;;17.48;;
76023;SDS011;64719;52.124;6.226;2023-11-21T01:24:42;45.67;;;16.98;;
76023;SDS011;64719;52.124;6.226;2023-11-21T01:27:09;48.55;;;17.83;;
76023;SDS011;64719;52.124;6.226;2023-11-21T01:29:35;51.78;;;17.98;;
76023;SDS011;64719;52.124;6.226;2023-11-21T01:32:02;48.28;;;18.90;;
76023;SDS011;64719;52.124;6.226;2023-11-21T01:34:28;44.40;;;16.98;;
76023;SDS011;64719;52.124;6.226;2023-11-21T01:36:55;46.92;;;17.33;;
76023;SDS011;64719;52.124;6.226;2023-11-21T01:39:22;50.15;;;18.13;;
76023;SDS011;64719;52.124;6.226;2023-11-21T01:41:50;53.28;;;18.30;;
76023;SDS011;64719;52.124;6.226;2023-11-21T01:44:17;47.10;;;17.65;;
76023;SDS011;64719;52.124;6.226;2023-11-21T01:46:44;49.28;;;18.30;;
76023;SDS011;64719;52.124;6.226;2023-11-21T01:49:10;42.58;;;17.58;;
76023;SDS011;64719;52.124;6.226;2023-11-21T01:51:38;50.17;;;17.00;;
76023;SDS011;64719;52.124;6.226;2023-11-21T01:54:04;45.22;;;17.92;;
76023;SDS011;64719;52.124;6.226;2023-11-21T01:56:31;49.80;;;17.00;;
76023;SDS011;64719;52.124;6.226;2023-11-21T01:58:59;49.92;;;18.55;;
76023;SDS011;64719;52.124;6.226;2023-11-21T02:01:25;52.63;;;18.05;;
76023;SDS011;64719;52.124;6.226;2023-11-21T02:03:51;57.08;;;19.52;;
76023;SDS011;64719;52.124;6.226;2023-11-21T02:06:18;45.65;;;15.98;;
76023;SDS011;64719;52.124;6.226;2023-11-21T02:08:44;49.25;;;17.00;;
76023;SDS011;64719;52.124;6.226;2023-11-21T02:11:11;50.72;;;17.88;;
76023;SDS011;64719;52.124;6.226;2023-11-21T02:13:38;52.20;;;17.95;;
76023;SDS011;64719;52.124;6.226;2023-11-21T02:16:09;48.40;;;17.45;;
76023;SDS011;64719;52.124;6.226;2023-11-21T02:18:37;55.28;;;18.45;;
76023;SDS011;64719;52.124;6.226;2023-11-21T02:21:04;50.38;;;17.88;;
76023;SDS011;64719;52.124;6.226;2023-11-21T02:23:31;46.67;;;16.33;;
76023;SDS011;64719;52.124;6.226;2023-11-21T02:25:58;47.20;;;16.42;;
76023;SDS011;64719;52.124;6.226;2023-11-21T02:28:29;56.03;;;20.02;;
76023;SDS011;64719;52.124;6.226;2023-11-21T02:30:55;50.55;;;18.90;;
76023;SDS011;64719;52.124;6.226;2023-11-21T02:33:23;53.90;;;18.25;;
76023;SDS011;64719;52.124;6.226;2023-11-21T02:35:49;53.22;;;18.13;;
76023;SDS011;64719;52.124;6.226;2023-11-21T02:38:18;49.50;;;17.02;;
76023;SDS011;64719;52.124;6.226;2023-11-21T02:40:46;58.95;;;20.27;;
76023;SDS011;64719;52.124;6.226;2023-11-21T02:43:12;65.85;;;19.33;;
76023;SDS011;64719;52.124;6.226;2023-11-21T02:45:39;48.78;;;17.98;;
76023;SDS011;64719;52.124;6.226;2023-11-21T02:48:06;55.47;;;18.42;;
76023;SDS011;64719;52.124;6.226;2023-11-21T02:50:33;52.05;;;18.42;;
76023;SDS011;64719;52.124;6.226;2023-11-21T02:53:00;49.15;;;17.75;;
76023;SDS011;64719;52.124;6.226;2023-11-21T02:55:26;52.50;;;19.65;;
76023;SDS011;64719;52.124;6.226;2023-11-21T02:57:54;52.30;;;18.45;;
76023;SDS011;64719;52.124;6.226;2023-11-21T03:00:22;52.45;;;18.02;;
76023;SDS011;64719;52.124;6.226;2023-11-21T03:05:17;58.63;;;18.52;;
76023;SDS011;64719;52.124;6.226;2023-11-21T03:07:43;47.10;;;16.35;;
76023;SDS011;64719;52.124;6.226;2023-11-21T03:10:10;60.70;;;18.95;;
76023;SDS011;64719;52.124;6.226;2023-11-21T03:12:37;50.63;;;19.38;;
76023;SDS011;64719;52.124;6.226;2023-11-21T03:15:05;63.85;;;19.05;;
76023;SDS011;64719;52.124;6.226;2023-11-21T03:17:31;48.38;;;19.42;;
76023;SDS011;64719;52.124;6.226;2023-11-21T03:19:58;50.47;;;17.55;;
76023;SDS011;64719;52.124;6.226;2023-11-21T03:22:25;63.58;;;19.92;;
76023;SDS011;64719;52.124;6.226;2023-11-21T03:24:51;58.15;;;20.73;;
76023;SDS011;64719;52.124;6.226;2023-11-21T03:27:18;61.85;;;19.95;;
76023;SDS011;64719;52.124;6.226;2023-11-21T03:29:44;59.17;;;19.25;;
76023;SDS011;64719;52.124;6.226;2023-11-21T03:32:13;60.30;;;20.10;;
76023;SDS011;64719;52.124;6.226;2023-11-21T03:34:52;60.92;;;19.85;;
76023;SDS011;64719;52.124;6.226;2023-11-21T03:37:19;68.20;;;20.77;;
76023;SDS011;64719;52.124;6.226;2023-11-21T03:39:45;56.80;;;20.00;;
76023;SDS011;64719;52.124;6.226;2023-11-21T03:42:12;63.80;;;19.08;;
76023;SDS011;64719;52.124;6.226;2023-11-21T03:44:38;52.80;;;18.08;;
76023;SDS011;64719;52.124;6.226;2023-11-21T03:47:04;53.70;;;18.00;;
76023;SDS011;64719;52.124;6.226;2023-11-21T03:49:32;55.25;;;17.88;;
76023;SDS011;64719;52.124;6.226;2023-11-21T03:51:58;50.00;;;18.67;;
76023;SDS011;64719;52.124;6.226;2023-11-21T03:54:25;51.10;;;16.48;;
76023;SDS011;64719;52.124;6.226;2023-11-21T03:56:51;51.50;;;18.58;;
76023;SDS011;64719;52.124;6.226;2023-11-21T03:59:17;53.25;;;18.55;;
76023;SDS011;64719;52.124;6.226;2023-11-21T04:01:44;49.40;;;17.25;;
76023;SDS011;64719;52.124;6.226;2023-11-21T04:04:10;56.42;;;18.88;;
76023;SDS011;64719;52.124;6.226;2023-11-21T04:06:38;59.92;;;18.48;;
76023;SDS011;64719;52.124;6.226;2023-11-21T04:09:05;57.83;;;18.83;;
76023;SDS011;64719;52.124;6.226;2023-11-21T04:11:31;46.45;;;17.67;;
76023;SDS011;64719;52.124;6.226;2023-11-21T04:13:57;61.55;;;19.65;;
76023;SDS011;64719;52.124;6.226;2023-11-21T04:16:24;62.40;;;21.55;;
76023;SDS011;64719;52.124;6.226;2023-11-21T04:18:50;57.65;;;19.73;;
76023;SDS011;64719;52.124;6.226;2023-11-21T04:21:16;56.28;;;17.80;;
76023;SDS011;64719;52.124;6.226;2023-11-21T04:23:44;61.67;;;19.45;;
76023;SDS011;64719;52.124;6.226;2023-11-21T04:26:11;62.03;;;20.38;;
76023;SDS011;64719;52.124;6.226;2023-11-21T04:28:38;56.75;;;18.33;;
76023;SDS011;64719;52.124;6.226;2023-11-21T04:31:04;63.20;;;20.00;;
76023;SDS011;64719;52.124;6.226;2023-11-21T04:33:32;71.90;;;20.27;;
76023;SDS011;64719;52.124;6.226;2023-11-21T04:35:58;62.08;;;21.63;;
76023;SDS011;64719;52.124;6.226;2023-11-21T04:38:24;66.40;;;21.35;;
76023;SDS011;64719;52.124;6.226;2023-11-21T04:40:52;61.58;;;21.30;;
76023;SDS011;64719;52.124;6.226;2023-11-21T04:43:18;60.40;;;21.65;;
76023;SDS011;64719;52.124;6.226;2023-11-21T04:45:45;62.47;;;20.52;;
76023;SDS011;64719;52.124;6.226;2023-11-21T04:48:11;64.28;;;20.27;;
76023;SDS011;64719;52.124;6.226;2023-11-21T04:50:37;74.13;;;22.42;;
76023;SDS011;64719;52.124;6.226;2023-11-21T04:53:04;67.55;;;21.50;;
76023;SDS011;64719;52.124;6.226;2023-11-21T04:55:30;76.22;;;22.75;;
76023;SDS011;64719;52.124;6.226;2023-11-21T04:57:58;72.30;;;22.48;;
76023;SDS011;64719;52.124;6.226;2023-11-21T05:00:24;75.03;;;23.20;;
76023;SDS011;64719;52.124;6.226;2023-11-21T05:02:51;70.47;;;22.50;;
76023;SDS011;64719;52.124;6.226;2023-11-21T05:05:17;68.80;;;22.75;;
76023;SDS011;64719;52.124;6.226;2023-11-21T05:07:44;70.60;;;23.13;;
76023;SDS011;64719;52.124;6.226;2023-11-21T05:10:10;74.78;;;24.67;;
76023;SDS011;64719;52.124;6.226;2023-11-21T05:12:39;75.07;;;23.50;;
76023;SDS011;64719;52.124;6.226;2023-11-21T05:15:08;80.55;;;23.42;;
76023;SDS011;64719;52.124;6.226;2023-11-21T05:17:35;85.50;;;25.17;;
76023;SDS011;64719;52.124;6.226;2023-11-21T05:20:03;84.15;;;23.38;;
76023;SDS011;64719;52.124;6.226;2023-11-21T05:22:33;76.53;;;24.30;;
76023;SDS011;64719;52.124;6.226;2023-11-21T05:24:59;83.72;;;25.27;;
76023;SDS011;64719;52.124;6.226;2023-11-21T05:27:26;82.30;;;26.05;;
76023;SDS011;64719;52.124;6.226;2023-11-21T05:29:52;84.18;;;25.15;;
76023;SDS011;64719;52.124;6.226;2023-11-21T05:32:20;75.65;;;24.15;;
76023;SDS011;64719;52.124;6.226;2023-11-21T05:34:46;70.60;;;23.50;;
76023;SDS011;64719;52.124;6.226;2023-11-21T05:37:12;84.22;;;24.40;;
76023;SDS011;64719;52.124;6.226;2023-11-21T05:39:39;75.63;;;24.00;;
76023;SDS011;64719;52.124;6.226;2023-11-21T05:42:05;77.55;;;24.27;;
76023;SDS011;64719;52.124;6.226;2023-11-21T05:44:31;91.38;;;26.35;;
76023;SDS011;64719;52.124;6.226;2023-11-21T05:46:58;79.57;;;23.05;;
76023;SDS011;64719;52.124;6.226;2023-11-21T05:49:25;87.13;;;23.70;;
76023;SDS011;64719;52.124;6.226;2023-11-21T05:51:52;78.53;;;24.02;;
76023;SDS011;64719;52.124;6.226;2023-11-21T05:54:19;76.45;;;25.15;;
76023;SDS011;64719;52.124;6.226;2023-11-21T05:56:46;84.15;;;26.58;;
76023;SDS011;64719;52.124;6.226;2023-11-21T05:59:12;84.70;;;26.30;;
76023;SDS011;64719;52.124;6.226;2023-11-21T06:01:39;74.75;;;23.40;;
76023;SDS011;64719;52.124;6.226;2023-11-21T06:04:06;76.25;;;24.17;;
76023;SDS011;64719;52.124;6.226;2023-11-21T06:06:34;75.30;;;24.33;;
76023;SDS011;64719;52.124;6.226;2023-11-21T06:09:00;88.13;;;24.42;;
76023;SDS011;64719;52.124;6.226;2023-11-21T06:11:27;81.97;;;23.63;;
76023;SDS011;64719;52.124;6.226;2023-11-21T06:13:54;82.50;;;23.75;;
76023;SDS011;64719;52.124;6.226;2023-11-21T06:16:20;80.38;;;24.17;;
76023;SDS011;64719;52.124;6.226;2023-11-21T06:18:47;78.35;;;24.45;;
76023;SDS011;64719;52.124;6.226;2023-11-21T06:21:13;66.10;;;22.38;;
76023;SDS011;64719;52.124;6.226;2023-11-21T06:23:43;77.88;;;22.38;;
76023;SDS011;64719;52.124;6.226;2023-11-21T06:26:09;69.50;;;23.20;;
76023;SDS011;64719;52.124;6.226;2023-11-21T06:28:35;80.97;;;23.98;;
76023;SDS011;64719;52.124;6.226;2023-11-21T06:31:02;76.53;;;23.40;;
76023;SDS011;64719;52.124;6.226;2023-11-21T06:33:30;74.35;;;22.80;;
76023;SDS011;64719;52.124;6.226;2023-11-21T06:35:56;65.35;;;21.25;;
76023;SDS011;64719;52.124;6.226;2023-11-21T06:38:22;69.53;;;22.15;;
76023;SDS011;64719;52.124;6.226;2023-11-21T06:40:50;66.18;;;21.23;;
76023;SDS011;64719;52.124;6.226;2023-11-21T06:43:16;74.90;;;24.05;;
76023;SDS011;64719;52.124;6.226;2023-11-21T06:45:43;67.68;;;22.17;;
76023;SDS011;64719;52.124;6.226;2023-11-21T06:48:09;72.25;;;23.02;;
76023;SDS011;64719;52.124;6.226;2023-11-21T06:50:36;79.32;;;22.25;;
76023;SDS011;64719;52.124;6.226;2023-11-21T06:53:02;71.22;;;22.10;;
76023;SDS011;64719;52.124;6.226;2023-11-21T06:55:31;59.25;;;21.45;;
76023;SDS011;64719;52.124;6.226;2023-11-21T06:57:59;71.65;;;21.50;;
76023;SDS011;64719;52.124;6.226;2023-11-21T07:00:26;68.43;;;23.33;;
76023;SDS011;64719;52.124;6.226;2023-11-21T07:02:53;70.72;;;21.90;;
76023;SDS011;64719;52.124;6.226;2023-11-21T07:05:20;62.83;;;20.77;;
76023;SDS011;64719;52.124;6.226;2023-11-21T07:07:46;69.43;;;23.60;;
76023;SDS011;64719;52.124;6.226;2023-11-21T07:10:13;58.20;;;20.38;;
76023;SDS011;64719;52.124;6.226;2023-11-21T07:12:39;62.97;;;20.75;;
76023;SDS011;64719;52.124;6.226;2023-11-21T07:15:08;72.03;;;21.52;;
76023;SDS011;64719;52.124;6.226;2023-11-21T07:17:35;68.90;;;21.60;;
76023;SDS011;64719;52.124;6.226;2023-11-21T07:20:02;67.68;;;20.95;;
76023;SDS011;64719;52.124;6.226;2023-11-21T07:22:28;59.47;;;20.73;;
76023;SDS011;64719;52.124;6.226;2023-11-21T07:24:55;74.15;;;21.25;;
76023;SDS011;64719;52.124;6.226;2023-11-21T07:27:22;67.90;;;20.63;;
76023;SDS011;64719;52.124;6.226;2023-11-21T07:29:49;58.65;;;20.02;;
76023;SDS011;64719;52.124;6.226;2023-11-21T07:32:16;58.88;;;21.42;;
76023;SDS011;64719;52.124;6.226;2023-11-21T07:34:43;63.95;;;21.45;;
76023;SDS011;64719;52.124;6.226;2023-11-21T07:37:09;53.25;;;19.92;;
76023;SDS011;64719;52.124;6.226;2023-11-21T07:39:35;53.47;;;18.50;;
76023;SDS011;64719;52.124;6.226;2023-11-21T07:42:02;53.75;;;19.23;;
76023;SDS011;64719;52.124;6.226;2023-11-21T07:44:29;55.30;;;19.80;;
76023;SDS011;64719;52.124;6.226;2023-11-21T07:46:55;55.25;;;19.73;;
76023;SDS011;64719;52.124;6.226;2023-11-21T07:49:24;44.85;;;19.10;;
76023;SDS011;64719;52.124;6.226;2023-11-21T07:51:51;50.40;;;19.02;;
76023;SDS011;64719;52.124;6.226;2023-11-21T07:54:18;48.00;;;17.95;;
76023;SDS011;64719;52.124;6.226;2023-11-21T07:56:44;52.33;;;19.92;;
76023;SDS011;64719;52.124;6.226;2023-11-21T07:59:11;50.95;;;18.88;;
76023;SDS011;64719;52.124;6.226;2023-11-21T08:01:37;54.55;;;19.38;;
76023;SDS011;64719;52.124;6.226;2023-11-21T08:04:05;49.90;;;18.50;;
76023;SDS011;64719;52.124;6.226;2023-11-21T08:06:33;55.47;;;19.02;;
76023;SDS011;64719;52.124;6.226;2023-11-21T08:08:59;50.47;;;18.95;;
76023;SDS011;64719;52.124;6.226;2023-11-21T08:11:26;46.55;;;18.70;;
76023;SDS011;64719;52.124;6.226;2023-11-21T08:13:54;43.45;;;16.88;;
76023;SDS011;64719;52.124;6.226;2023-11-21T08:16:21;39.83;;;16.27;;
76023;SDS011;64719;52.124;6.226;2023-11-21T08:18:49;42.78;;;15.70;;
76023;SDS011;64719;52.124;6.226;2023-11-21T08:21:15;41.10;;;17.33;;
76023;SDS011;64719;52.124;6.226;2023-11-21T08:23:43;41.22;;;15.80;;
76023;SDS011;64719;52.124;6.226;2023-11-21T08:26:09;40.45;;;15.75;;
76023;SDS011;64719;52.124;6.226;2023-11-21T08:28:35;37.55;;;17.08;;
76023;SDS011;64719;52.124;6.226;2023-11-21T08:31:02;41.35;;;17.23;;
76023;SDS011;64719;52.124;6.226;2023-11-21T08:33:29;44.72;;;18.08;;
76023;SDS011;64719;52.124;6.226;2023-11-21T08:35:55;46.10;;;19.55;;
76023;SDS011;64719;52.124;6.226;2023-11-21T08:38:22;49.00;;;18.48;;
76023;SDS011;64719;52.124;6.226;2023-11-21T08:40:49;42.88;;;17.63;;
76023;SDS011;64719;52.124;6.226;2023-11-21T08:43:16;50.45;;;22.63;;
76023;SDS011;64719;52.124;6.226;2023-11-21T08:45:44;43.00;;;17.80;;
76023;SDS011;64719;52.124;6.226;2023-11-21T08:48:11;44.88;;;18.30;;
76023;SDS011;64719;52.124;6.226;2023-11-21T08:50:37;36.35;;;15.50;;
76023;SDS011;64719;52.124;6.226;2023-11-21T08:53:04;45.10;;;18.02;;
76023;SDS011;64719;52.124;6.226;2023-11-21T08:55:30;45.58;;;17.65;;
76023;SDS011;64719;52.124;6.226;2023-11-21T08:58:03;44.00;;;18.60;;
76023;SDS011;64719;52.124;6.226;2023-11-21T09:00:31;39.38;;;17.67;;
76023;SDS011;64719;52.124;6.226;2023-11-21T09:02:58;45.10;;;19.05;;
76023;SDS011;64719;52.124;6.226;2023-11-21T09:05:24;43.67;;;20.73;;
76023;SDS011;64719;52.124;6.226;2023-11-21T09:07:51;38.10;;;17.92;;
76023;SDS011;64719;52.124;6.226;2023-11-21T09:10:17;37.90;;;17.40;;
76023;SDS011;64719;52.124;6.226;2023-11-21T09:12:44;44.35;;;18.45;;
76023;SDS011;64719;52.124;6.226;2023-11-21T09:15:12;38.53;;;16.02;;
76023;SDS011;64719;52.124;6.226;2023-11-21T09:17:39;36.33;;;16.42;;
76023;SDS011;64719;52.124;6.226;2023-11-21T09:20:07;36.35;;;15.15;;
76023;SDS011;64719;52.124;6.226;2023-11-21T09:22:35;40.03;;;14.73;;
76023;SDS011;64719;52.124;6.226;2023-11-21T09:25:01;36.95;;;14.88;;
76023;SDS011;64719;52.124;6.226;2023-11-21T09:27:30;36.85;;;16.27;;
76023;SDS011;64719;52.124;6.226;2023-11-21T09:29:56;29.17;;;12.60;;
76023;SDS011;64719;52.124;6.226;2023-11-21T09:32:24;28.80;;;13.40;;
76023;SDS011;64719;52.124;6.226;2023-11-21T09:34:50;33.00;;;13.23;;
76023;SDS011;64719;52.124;6.226;2023-11-21T09:37:17;31.05;;;13.48;;
76023;SDS011;64719;52.124;6.226;2023-11-21T09:39:44;25.65;;;14.02;;
76023;SDS011;64719;52.124;6.226;2023-11-21T09:42:13;26.20;;;12.38;;
76023;SDS011;64719;52.124;6.226;2023-11-21T09:44:43;27.50;;;12.68;;
76023;SDS011;64719;52.124;6.226;2023-11-21T09:47:14;23.90;;;11.50;;
76023;SDS011;64719;52.124;6.226;2023-11-21T09:52:09;19.95;;;10.35;;
76023;SDS011;64719;52.124;6.226;2023-11-21T09:54:38;23.80;;;11.50;;
76023;SDS011;64719;52.124;6.226;2023-11-21T09:57:05;20.77;;;10.95;;
76023;SDS011;64719;52.124;6.226;2023-11-21T09:59:32;25.08;;;11.50;;
76023;SDS011;64719;52.124;6.226;2023-11-21T10:01:58;25.35;;;12.20;;
76023;SDS011;64719;52.124;6.226;2023-11-21T10:04:25;25.45;;;12.30;;
76023;SDS011;64719;52.124;6.226;2023-11-21T10:06:51;26.17;;;11.95;;
76023;SDS011;64719;52.124;6.226;2023-11-21T10:09:20;19.95;;;10.95;;
76023;SDS011;64719;52.124;6.226;2023-11-21T10:11:47;18.42;;;9.15;;
76023;SDS011;64719;52.124;6.226;2023-11-21T10:14:15;16.88;;;8.45;;
76023;SDS011;64719;52.124;6.226;2023-11-21T10:16:43;16.40;;;9.52;;
76023;SDS011;64719;52.124;6.226;2023-11-21T10:19:12;19.27;;;8.82;;
76023;SDS011;64719;52.124;6.226;2023-11-21T10:21:41;18.10;;;9.70;;
76023;SDS011;64719;52.124;6.226;2023-11-21T10:24:08;20.73;;;9.60;;
76023;SDS011;64719;52.124;6.226;2023-11-21T10:26:35;20.48;;;9.25;;
76023;SDS011;64719;52.124;6.226;2023-11-21T10:31:29;18.52;;;8.45;;
76023;SDS011;64719;52.124;6.226;2023-11-21T10:33:57;19.25;;;10.65;;
76023;SDS011;64719;52.124;6.226;2023-11-21T10:36:27;21.50;;;10.15;;
76023;SDS011;64719;52.124;6.226;2023-11-21T10:38:53;20.70;;;9.90;;
76023;SDS011;64719;52.124;6.226;2023-11-21T10:41:19;21.10;;;9.48;;
76023;SDS011;64719;52.124;6.226;2023-11-21T10:43:47;23.65;;;10.02;;
76023;SDS011;64719;52.124;6.226;2023-11-21T10:46:14;21.58;;;10.00;;
76023;SDS011;64719;52.124;6.226;2023-11-21T10:48:40;21.58;;;10.68;;
76023;SDS011;64719;52.124;6.226;2023-11-21T10:51:07;19.98;;;9.85;;
76023;SDS011;64719;52.124;6.226;2023-11-21T10:53:37;21.13;;;10.05;;
76023;SDS011;64719;52.124;6.226;2023-11-21T10:56:05;22.63;;;10.60;;
76023;SDS011;64719;52.124;6.226;2023-11-21T10:58:32;20.85;;;10.20;;
76023;SDS011;64719;52.124;6.226;2023-11-21T11:01:00;22.92;;;10.50;;
76023;SDS011;64719;52.124;6.226;2023-11-21T11:03:29;28.10;;;12.70;;
76023;SDS011;64719;52.124;6.226;2023-11-21T11:05:55;26.30;;;11.98;;
76023;SDS011;64719;52.124;6.226;2023-11-21T11:08:22;31.08;;;13.85;;
76023;SDS011;64719;52.124;6.226;2023-11-21T11:10:51;34.97;;;13.88;;
76023;SDS011;64719;52.124;6.226;2023-11-21T11:13:18;32.50;;;14.25;;
76023;SDS011;64719;52.124;6.226;2023-11-21T11:15:46;33.05;;;12.73;;
76023;SDS011;64719;52.124;6.226;2023-11-21T11:18:14;32.50;;;13.52;;
76023;SDS011;64719;52.124;6.226;2023-11-21T11:20:42;37.58;;;14.05;;
76023;SDS011;64719;52.124;6.226;2023-11-21T11:23:13;36.47;;;14.70;;
76023;SDS011;64719;52.124;6.226;2023-11-21T11:25:49;31.80;;;13.85;;
76023;SDS011;64719;52.124;6.226;2023-11-21T11:28:19;30.17;;;13.38;;
76023;SDS011;64719;52.124;6.226;2023-11-21T11:30:50;28.27;;;12.82;;
76023;SDS011;64719;52.124;6.226;2023-11-21T11:33:23;34.53;;;14.27;;
76023;SDS011;64719;52.124;6.226;2023-11-21T11:35:53;29.80;;;12.88;;
76023;SDS011;64719;52.124;6.226;2023-11-21T11:38:23;33.60;;;14.20;;
76023;SDS011;64719;52.124;6.226;2023-11-21T11:40:52;30.92;;;13.18;;
76023;SDS011;64719;52.124;6.226;2023-11-21T11:43:24;32.72;;;12.95;;
76023;SDS011;64719;52.124;6.226;2023-11-21T11:45:51;31.83;;;13.68;;
76023;SDS011;64719;52.124;6.226;2023-11-21T11:48:19;36.58;;;14.27;;
76023;SDS011;64719;52.124;6.226;2023-11-21T11:51:04;36.15;;;14.45;;
76023;SDS011;64719;52.124;6.226;2023-11-21T11:53:37;32.90;;;14.27;;
76023;SDS011;64719;52.124;6.226;2023-11-21T11:56:21;34.90;;;14.95;;
76023;SDS011;64719;52.124;6.226;2023-11-21T11:58:48;32.05;;;13.65;;
76023;SDS011;64719;52.124;6.226;2023-11-21T12:01:16;33.38;;;13.95;;
76023;SDS011;64719;52.124;6.226;2023-11-21T12:03:42;33.33;;;12.80;;
76023;SDS011;64719;52.124;6.226;2023-11-21T12:06:10;35.22;;;13.55;;
76023;SDS011;64719;52.124;6.226;2023-11-21T12:11:04;31.02;;;14.13;;
76023;SDS011;64719;52.124;6.226;2023-11-21T12:13:30;35.78;;;13.63;;
76023;SDS011;64719;52.124;6.226;2023-11-21T12:15:57;35.45;;;14.38;;
76023;SDS011;64719;52.124;6.226;2023-11-21T12:18:23;31.38;;;13.40;;
76023;SDS011;64719;52.124;6.226;2023-11-21T12:20:51;34.85;;;13.75;;
76023;SDS011;64719;52.124;6.226;2023-11-21T12:23:19;35.97;;;13.68;;
76023;SDS011;64719;52.124;6.226;2023-11-21T12:28:12;36.25;;;14.57;;
76023;SDS011;64719;52.124;6.226;2023-11-21T12:30:39;33.97;;;13.23;;
76023;SDS011;64719;52.124;6.226;2023-11-21T12:33:05;32.03;;;12.05;;
76023;SDS011;64719;52.124;6.226;2023-11-21T12:35:34;32.60;;;12.23;;
76023;SDS011;64719;52.124;6.226;2023-11-21T12:38:00;29.50;;;12.45;;
76023;SDS011;64719;52.124;6.226;2023-11-21T12:40:30;29.58;;;12.70;;
76023;SDS011;64719;52.124;6.226;2023-11-21T12:42:56;30.77;;;12.82;;
76023;SDS011;64719;52.124;6.226;2023-11-21T12:45:24;25.02;;;11.07;;
76023;SDS011;64719;52.124;6.226;2023-11-21T12:47:54;33.30;;;13.02;;
76023;SDS011;64719;52.124;6.226;2023-11-21T12:50:21;31.20;;;13.15;;
76023;SDS011;64719;52.124;6.226;2023-11-21T12:52:50;30.48;;;11.43;;
76023;SDS011;64719;52.124;6.226;2023-11-21T12:55:18;28.30;;;10.70;;
76023;SDS011;64719;52.124;6.226;2023-11-21T12:57:49;29.25;;;11.45;;
76023;SDS011;64719;52.124;6.226;2023-11-21T13:00:17;28.85;;;11.25;;
76023;SDS011;64719;52.124;6.226;2023-11-21T13:02:52;26.75;;;9.30;;
76023;SDS011;64719;52.124;6.226;2023-11-21T13:05:24;26.25;;;8.65;;
76023;SDS011;64719;52.124;6.226;2023-11-21T13:07:50;30.25;;;8.95;;
76023;SDS011;64719;52.124;6.226;2023-11-21T13:10:19;25.13;;;8.77;;
76023;SDS011;64719;52.124;6.226;2023-11-21T13:12:48;24.92;;;8.80;;
76023;SDS011;64719;52.124;6.226;2023-11-21T13:15:17;27.27;;;8.85;;
76023;SDS011;64719;52.124;6.226;2023-11-21T13:17:43;27.70;;;9.23;;
76023;SDS011;64719;52.124;6.226;2023-11-21T13:20:10;30.73;;;8.68;;
76023;SDS011;64719;52.124;6.226;2023-11-21T13:22:44;27.85;;;9.18;;
76023;SDS011;64719;52.124;6.226;2023-11-21T13:25:10;27.02;;;8.93;;
76023;SDS011;64719;52.124;6.226;2023-11-21T13:27:39;21.88;;;8.20;;
76023;SDS011;64719;52.124;6.226;2023-11-21T13:32:35;21.52;;;7.57;;
76023;SDS011;64719;52.124;6.226;2023-11-21T13:35:02;21.15;;;7.47;;
76023;SDS011;64719;52.124;6.226;2023-11-21T13:37:33;24.38;;;8.50;;
76023;SDS011;64719;52.124;6.226;2023-11-21T13:39:59;21.67;;;7.93;;
76023;SDS011;64719;52.124;6.226;2023-11-21T13:42:28;21.55;;;8.57;;
76023;SDS011;64719;52.124;6.226;2023-11-21T13:44:56;20.08;;;8.70;;
76023;SDS011;64719;52.124;6.226;2023-11-21T13:47:22;24.20;;;8.43;;
76023;SDS011;64719;52.124;6.226;2023-11-21T13:49:52;19.35;;;7.88;;
76023;SDS011;64719;52.124;6.226;2023-11-21T13:52:18;19.88;;;7.88;;
76023;SDS011;64719;52.124;6.226;2023-11-21T13:54:47;17.70;;;7.03;;
76023;SDS011;64719;52.124;6.226;2023-11-21T13:57:14;20.13;;;7.93;;
76023;SDS011;64719;52.124;6.226;2023-11-21T13:59:41;19.02;;;7.93;;
76023;SDS011;64719;52.124;6.226;2023-11-21T14:02:09;16.25;;;7.07;;
76023;SDS011;64719;52.124;6.226;2023-11-21T14:04:42;19.27;;;7.18;;
76023;SDS011;64719;52.124;6.226;2023-11-21T14:07:23;14.40;;;5.82;;
76023;SDS011;64719;52.124;6.226;2023-11-21T14:09:57;19.55;;;6.97;;
76023;SDS011;64719;52.124;6.226;2023-11-21T14:12:24;17.67;;;7.15;;
76023;SDS011;64719;52.124;6.226;2023-11-21T14:14:50;16.08;;;6.53;;
76023;SDS011;64719;52.124;6.226;2023-11-21T14:17:16;18.90;;;8.07;;
76023;SDS011;64719;52.124;6.226;2023-11-21T14:19:43;16.40;;;7.82;;
76023;SDS011;64719;52.124;6.226;2023-11-21T14:22:09;17.35;;;7.22;;
76023;SDS011;64719;52.124;6.226;2023-11-21T14:24:37;16.63;;;8.48;;
76023;SDS011;64719;52.124;6.226;2023-11-21T14:27:08;17.27;;;8.23;;
76023;SDS011;64719;52.124;6.226;2023-11-21T14:29:35;18.42;;;8.15;;
76023;SDS011;64719;52.124;6.226;2023-11-21T14:32:05;20.92;;;9.55;;
76023;SDS011;64719;52.124;6.226;2023-11-21T14:34:31;20.63;;;10.02;;
76023;SDS011;64719;52.124;6.226;2023-11-21T14:36:57;18.60;;;9.27;;
76023;SDS011;64719;52.124;6.226;2023-11-21T14:39:24;19.58;;;9.35;;